Velilla de San Antonio, Spain
Current Conditions -  °F | °C
As of 11:30 AM on Friday 24 Oct 2014 (Local Time) from LEMD Reporting Station
Clear Clear  
Wind Chill: 63°   Ceiling: Unl
Heat Index: 63°   Visibility: 6mi
Dew Point: 46°   Wind: 3mph
Humidity: 55%   Direction: 180°S
Pressure: 30.15"   Gusts: NA
Location:  40.37°N, 3.48°W
Report Text: LEMD 240930Z 18003KT CAVOK 17/08 Q1021 NOSIG
Loading
Personal Weather Stations






























Interactive Weather Map
Tropical Storm Tracking
New forecast layout! Learn more

10-Day Weather Forecast

Advertisements
Track Severe Weather on mobile